Time;durP1;ratioP1;P1;durP2;ratioP2;P2;SDS_P1;SDS_P2;PMS_P1;PMS_P2;Temp;Humidity;BMP_temperature;BMP_pressure;BME280_temperature;BME280_humidity;BME280_pressure;Samples;Min_cycle;Max_cycle;Signal;HPM_P1;HPM_P2
2022/09/19 00:00:26;;;;;;;2.40;1.60;;;;;;;23.09;41.52;94916.41;4968343;28;20036;-60
2022/09/19 00:02:51;;;;;;;2.42;1.77;;;;;;;22.86;41.45;94876.22;4985179;28;20030;-60
2022/09/19 00:05:17;;;;;;;2.17;1.55;;;;;;;23.68;41.54;94998.09;4994106;28;20046;-60
2022/09/19 00:07:43;;;;;;;2.85;1.90;;;;;;;23.10;41.43;94917.84;4999270;28;20044;-60
2022/09/19 00:10:08;;;;;;;3.80;1.63;;;;;;;23.27;41.16;94937.50;4985201;28;20038;-60
2022/09/19 00:12:34;;;;;;;3.35;2.15;;;;;;;23.69;41.31;94989.41;5003138;28;20105;-60
2022/09/19 00:15:00;;;;;;;2.80;1.70;;;;;;;23.56;41.46;94977.63;5004411;28;20050;-60
2022/09/19 00:17:25;;;;;;;4.22;1.83;;;;;;;23.29;41.31;94935.03;5001847;28;20097;-60
2022/09/19 00:19:51;;;;;;;2.97;1.63;;;;;;;23.69;41.18;94994.09;5002500;28;20139;-60
2022/09/19 00:22:17;;;;;;;3.17;1.60;;;;;;;23.55;41.26;94978.84;4984442;28;20129;-61
2022/09/19 00:24:45;;;;;;;2.85;1.67;;;;;;;23.51;41.22;94978.38;5004948;28;20191;-61
2022/09/19 00:27:21;;;;;;;2.22;1.48;;;;;;;23.27;41.46;94926.59;5001593;28;20576;-60
2022/09/19 00:29:47;;;;;;;2.42;1.70;;;;;;;23.29;41.40;94921.41;4999318;28;20034;-60
2022/09/19 00:32:13;;;;;;;2.30;1.50;;;;;;;23.61;41.23;94971.38;4995629;28;20499;-60
2022/09/19 00:34:43;;;;;;;2.65;1.55;;;;;;;23.21;41.50;94917.75;4986305;28;20459;-59
2022/09/19 00:37:09;;;;;;;;;;;;;;;23.61;40.93;94979.53;5002663;28;20053;-60
2022/09/19 00:39:34;;;;;;;1.92;1.30;;;;;;;23.56;41.37;94964.00;4982015;28;19918;-59
2022/09/19 00:42:00;;;;;;;2.05;1.40;;;;;;;23.24;41.50;94930.34;4985231;28;20043;-59
2022/09/19 00:44:25;;;;;;;2.33;1.42;;;;;;;23.60;41.43;94986.22;4984602;28;20042;-62
2022/09/19 00:46:55;;;;;;;2.53;1.58;;;;;;;23.57;41.14;94981.81;5003525;28;20060;-59
2022/09/19 00:49:21;;;;;;;2.40;1.60;;;;;;;22.46;40.76;94811.00;4978911;28;20066;-59
2022/09/19 00:51:55;;;;;;;3.45;1.55;;;;;;;23.21;41.47;94928.63;4966401;28;20077;-59
2022/09/19 00:54:28;;;;;;;2.53;1.70;;;;;;;23.25;41.11;94933.81;4984284;28;20027;-59
2022/09/19 00:56:54;;;;;;;2.85;1.70;;;;;;;23.46;41.43;94976.47;4988132;28;20042;-60
2022/09/19 00:59:21;;;;;;;2.63;1.50;;;;;;;23.51;40.89;94976.41;4949037;28;20043;-58
2022/09/19 01:01:48;;;;;;;2.90;1.58;;;;;;;23.57;41.16;94981.81;4984658;28;20035;-59
2022/09/19 01:04:19;;;;;;;2.85;1.30;;;;;;;23.09;40.85;94915.63;5002906;28;20467;-59
2022/09/19 01:07:13;;;;;;;2.50;1.52;;;;;;;23.55;41.02;94970.69;4995441;28;20034;-59
2022/09/19 01:09:57;;;;;;;2.75;1.40;;;;;;;23.55;41.18;94970.69;4983797;28;20053;-59
2022/09/19 01:12:57;;;;;;;3.53;1.92;;;;;;;23.53;41.42;94973.19;4981899;28;20072;-61
2022/09/19 01:15:35;;;;;;;2.45;1.42;;;;;;;23.54;41.23;94982.81;4988671;28;20054;-60
2022/09/19 01:18:01;;;;;;;2.40;1.40;;;;;;;23.57;41.18;94993.47;4953749;28;20729;-59
2022/09/19 01:20:52;;;;;;;2.70;1.67;;;;;;;23.18;40.92;94935.09;4978798;28;20519;-59
2022/09/19 01:23:25;;;;;;;2.10;1.50;;;;;;;23.52;40.87;94982.59;4986685;28;20038;-59
2022/09/19 01:25:53;;;;;;;2.42;1.50;;;;;;;23.39;41.31;94955.97;5002710;28;20433;-59
2022/09/19 01:28:21;;;;;;;2.00;1.40;;;;;;;23.51;41.19;94970.22;4980440;28;20157;-59
2022/09/19 01:31:17;;;;;;;2.42;1.50;;;;;;;22.75;40.81;94853.78;4958626;28;20036;-59
2022/09/19 01:34:02;;;;;;;2.13;1.60;;;;;;;23.52;41.44;94968.97;4960861;28;20025;-60
2022/09/19 01:36:31;;;;;;;2.53;1.40;;;;;;;23.31;41.05;94935.25;4976399;28;20050;-59
2022/09/19 01:38:57;;;;;;;3.30;1.42;;;;;;;23.14;41.47;94917.59;4965265;28;20054;-59
2022/09/19 01:41:22;;;;;;;2.30;1.42;;;;;;;23.06;41.37;94901.06;4952161;28;20404;-60
2022/09/19 01:43:49;;;;;;;2.45;1.33;;;;;;;23.46;41.46;94954.66;5001912;28;20045;-59
2022/09/19 01:46:49;;;;;;;2.50;1.50;;;;;;;22.88;41.01;94869.03;5002211;28;20168;-59
2022/09/19 01:49:38;;;;;;;2.47;1.45;;;;;;;23.48;41.06;94963.06;4926268;28;20054;-60
2022/09/19 01:52:29;;;;;;;1.95;1.40;;;;;;;23.49;41.43;94959.09;4965123;28;20491;-59
2022/09/19 01:55:01;;;;;;;2.83;1.63;;;;;;;23.45;41.35;94958.63;4999273;28;20045;-59
2022/09/19 01:57:36;;;;;;;2.17;1.58;;;;;;;23.46;41.34;94963.56;4975239;28;20454;-59
2022/09/19 02:00:04;;;;;;;2.58;1.95;;;;;;;23.46;41.08;94960.13;4954358;28;20038;-60
2022/09/19 02:02:46;;;;;;;2.35;1.50;;;;;;;23.45;41.08;94959.38;4983101;28;20481;-59
2022/09/19 02:05:43;;;;;;;2.47;1.40;;;;;;;23.45;41.42;94953.94;4995806;28;20052;-59
2022/09/19 02:08:14;;;;;;;2.35;1.40;;;;;;;23.46;41.38;94954.66;4978852;28;20088;-59
2022/09/19 02:11:03;;;;;;;2.53;1.70;;;;;;;23.44;41.03;94951.72;4999476;28;20058;-62
2022/09/19 02:13:31;;;;;;;3.20;1.30;;;;;;;23.36;41.13;94948.06;4984710;28;20058;-59
2022/09/19 02:16:00;;;;;;;1.85;1.27;;;;;;;22.70;41.06;94895.41;4984341;28;20518;-60
2022/09/19 02:18:56;;;;;;;2.20;1.20;;;;;;;23.35;40.95;94940.41;4969008;28;20045;-59
2022/09/19 02:21:48;;;;;;;1.92;1.52;;;;;;;23.40;41.25;94945.81;4943913;28;20447;-59
2022/09/19 02:24:16;;;;;;;2.25;1.23;;;;;;;23.40;41.09;94940.34;4971978;28;20034;-60
2022/09/19 02:26:42;;;;;;;2.58;1.55;;;;;;;23.12;41.38;94909.94;4999536;28;20036;-59
2022/09/19 02:29:09;;;;;;;2.15;1.27;;;;;;;23.37;40.84;94946.81;4946279;28;20205;-59
2022/09/19 02:31:34;;;;;;;3.28;1.38;;;;;;;23.37;41.05;94935.94;4950537;28;20042;-59
2022/09/19 02:34:02;;;;;;;2.25;1.50;;;;;;;23.39;41.12;94945.06;4964865;28;20026;-59
2022/09/19 02:36:33;;;;;;;2.35;1.20;;;;;;;23.35;41.34;94943.88;4983582;28;20010;-59
2022/09/19 02:39:02;;;;;;;2.58;1.52;;;;;;;22.69;41.27;94842.22;4983068;28;20042;-59
2022/09/19 02:41:27;;;;;;;2.58;1.40;;;;;;;23.31;41.07;94943.41;4960665;28;20041;-60
2022/09/19 02:44:18;;;;;;;2.10;1.58;;;;;;;22.74;41.12;94857.78;4993176;28;20042;-59
2022/09/19 02:47:01;;;;;;;2.72;1.40;;;;;;;23.04;41.52;94898.09;4967992;28;20061;-59
2022/09/19 02:49:38;;;;;;;2.03;1.45;;;;;;;22.84;40.87;94861.63;4980170;28;20077;-59
2022/09/19 02:52:06;;;;;;;2.80;1.33;;;;;;;23.04;40.60;94903.56;4976636;28;20053;-59
2022/09/19 02:54:33;;;;;;;2.00;1.20;;;;;;;22.94;40.99;94883.38;4985184;28;20136;-59
2022/09/19 02:57:01;;;;;;;1.95;1.30;;;;;;;23.15;41.08;94919.81;4989270;28;20046;-59
2022/09/19 02:59:32;;;;;;;2.72;1.70;;;;;;;22.93;40.89;94898.22;4964823;28;20137;-59
2022/09/19 03:02:02;;;;;;;2.28;1.52;;;;;;;23.15;41.07;94919.81;4958072;28;20499;-60
2022/09/19 03:04:34;;;;;;;2.38;1.25;;;;;;;23.12;40.98;94926.28;4976445;28;20057;-59
2022/09/19 03:07:13;;;;;;;2.33;1.35;;;;;;;23.21;41.03;94933.34;4967668;28;20030;-59
2022/09/19 03:09:57;;;;;;;2.25;1.52;;;;;;;23.12;41.01;94926.28;4973172;28;20048;-59
2022/09/19 03:12:37;;;;;;;2.97;1.50;;;;;;;23.28;40.80;94944.44;4989498;28;20042;-60
2022/09/19 03:15:05;;;;;;;2.15;1.27;;;;;;;23.20;40.83;94932.63;4973039;28;20072;-60
2022/09/19 03:17:58;;;;;;;2.00;1.15;;;;;;;23.29;40.73;94945.91;4982552;28;20034;-60
2022/09/19 03:20:24;;;;;;;1.60;0.90;;;;;;;23.27;41.07;94944.94;4982798;28;20046;-60
2022/09/19 03:22:50;;;;;;;1.90;1.20;;;;;;;23.26;41.03;94938.75;4971649;28;20030;-60
2022/09/19 03:25:15;;;;;;;2.47;1.67;;;;;;;23.12;41.12;94931.72;4988105;28;20038;-60
2022/09/19 03:27:41;;;;;;;1.95;1.13;;;;;;;23.00;41.01;94919.44;4996029;28;20483;-60
2022/09/19 03:30:08;;;;;;;3.30;1.48;;;;;;;22.85;41.11;94893.78;4999662;28;20039;-60
2022/09/19 03:32:35;;;;;;;2.75;1.60;;;;;;;23.23;41.28;94947.97;4999986;28;20038;-60
2022/09/19 03:35:02;;;;;;;2.15;1.17;;;;;;;22.89;41.07;94900.44;4986187;28;20046;-59
2022/09/19 03:37:28;;;;;;;1.77;1.20;;;;;;;22.49;40.97;94829.75;4994417;28;20144;-60
2022/09/19 03:39:54;;;;;;;1.95;1.30;;;;;;;22.71;40.65;94858.78;4990332;28;20465;-60
2022/09/19 03:42:20;;;;;;;1.92;1.17;;;;;;;23.24;40.68;94933.06;5005566;28;20133;-60
2022/09/19 03:44:46;;;;;;;2.25;1.35;;;;;;;22.55;40.55;94830.44;5005426;28;20037;-60
2022/09/19 03:47:11;;;;;;;2.22;1.45;;;;;;;22.95;40.57;94884.81;4998127;28;20524;-61
2022/09/19 03:49:37;;;;;;;2.55;1.30;;;;;;;23.20;41.05;94916.28;5000950;28;20096;-60
2022/09/19 03:52:02;;;;;;;2.20;1.30;;;;;;;23.11;40.86;94903.00;5008377;28;20103;-60
2022/09/19 03:54:28;;;;;;;2.42;1.60;;;;;;;22.85;40.74;94863.13;4990017;28;20581;-60
2022/09/19 03:56:53;;;;;;;2.72;1.40;;;;;;;22.82;40.48;94864.88;5003845;28;20472;-61
2022/09/19 03:59:19;;;;;;;1.95;1.30;;;;;;;22.70;40.72;94846.41;4997627;28;20046;-60
2022/09/19 04:01:44;;;;;;;1.90;1.40;;;;;;;22.65;40.94;94833.59;4992731;28;20546;-62
2022/09/19 04:04:11;;;;;;;1.80;1.15;;;;;;;23.14;40.87;94912.88;4991787;28;20127;-60
2022/09/19 04:06:37;;;;;;;2.10;1.27;;;;;;;23.15;40.73;94914.38;4987270;28;20034;-60
2022/09/19 04:09:02;;;;;;;1.73;1.20;;;;;;;22.96;40.72;94886.31;5003105;28;20593;-59
2022/09/19 04:11:29;;;;;;;2.65;1.27;;;;;;;23.03;40.80;94896.66;5005899;28;20045;-61
2022/09/19 04:13:55;;;;;;;2.30;1.30;;;;;;;23.16;40.55;94915.81;5008332;28;20038;-60
2022/09/19 04:16:21;;;;;;;1.50;1.10;;;;;;;23.14;40.60;94923.78;4999996;28;20650;-59
2022/09/19 04:18:49;;;;;;;2.00;1.05;;;;;;;22.70;40.44;94868.19;4988807;28;20026;-59
2022/09/19 04:21:16;;;;;;;2.22;1.30;;;;;;;22.70;40.68;94851.88;4984757;28;20030;-60
2022/09/19 04:23:42;;;;;;;1.67;1.08;;;;;;;22.59;40.79;94838.34;4996610;28;20052;-59
2022/09/19 04:26:09;;;;;;;3.05;1.40;;;;;;;22.47;40.79;94817.94;5002114;28;20186;-60
2022/09/19 04:28:35;;;;;;;1.75;1.02;;;;;;;22.88;40.65;94883.88;4983992;28;20034;-60
2022/09/19 04:31:01;;;;;;;1.70;1.20;;;;;;;22.85;40.49;94880.19;4979229;28;20025;-59
2022/09/19 04:33:27;;;;;;;1.40;1.02;;;;;;;23.09;40.55;94910.94;4992587;28;20450;-60
2022/09/19 04:35:52;;;;;;;2.28;1.20;;;;;;;22.76;40.92;94860.72;5003013;28;20041;-60
2022/09/19 04:38:18;;;;;;;1.95;1.20;;;;;;;22.45;40.75;94809.53;4991691;28;20045;-60
2022/09/19 04:40:47;;;;;;;2.60;1.20;;;;;;;23.08;40.81;94914.91;4980697;28;21467;-60
2022/09/19 04:43:15;;;;;;;1.57;1.20;;;;;;;22.37;40.44;94810.59;4996132;28;20732;-60
2022/09/19 04:45:40;;;;;;;3.50;1.15;;;;;;;22.44;40.37;94818.94;4984610;28;20018;-60
2022/09/19 04:48:06;;;;;;;1.90;1.30;;;;;;;22.79;40.35;94870.59;4999951;28;20443;-60
2022/09/19 04:50:34;;;;;;;3.00;1.30;;;;;;;22.71;40.37;94853.34;4992637;28;20038;-60
2022/09/19 04:53:00;;;;;;;1.85;1.10;;;;;;;22.69;40.25;94856.59;4954201;28;20050;-59
2022/09/19 04:55:27;;;;;;;2.15;1.23;;;;;;;22.54;40.59;94817.34;4990849;28;20102;-59
2022/09/19 04:57:54;;;;;;;2.63;1.35;;;;;;;21.66;40.31;94745.84;5003072;28;20024;-60
2022/09/19 05:00:36;;;;;;;2.53;1.17;;;;;;;22.91;40.53;94889.78;4988164;28;20037;-59
2022/09/19 05:03:12;;;;;;;1.92;1.08;;;;;;;23.05;40.52;94905.03;4972902;28;20157;-60
2022/09/19 05:05:40;;;;;;;3.58;1.50;;;;;;;22.57;40.37;94838.09;5000246;28;20038;-59
2022/09/19 05:08:07;;;;;;;3.20;1.20;;;;;;;22.56;40.40;94831.22;4984954;28;20030;-60
2022/09/19 05:10:32;;;;;;;3.47;1.30;;;;;;;22.88;40.41;94885.38;4987333;28;20042;-60
2022/09/19 05:12:59;;;;;;;4.53;1.35;;;;;;;23.06;40.54;94906.53;4980319;28;20109;-60
2022/09/19 05:15:25;;;;;;;5.78;2.10;;;;;;;22.97;40.79;94893.25;4982578;28;20178;-60
2022/09/19 05:17:53;;;;;;;4.97;1.50;;;;;;;23.15;40.90;94917.09;4989584;28;20034;-60
2022/09/19 05:20:19;;;;;;;6.70;1.63;;;;;;;23.08;41.08;94914.91;4996521;28;20053;-60
2022/09/19 05:22:45;;;;;;;2.47;1.35;;;;;;;23.23;41.25;94928.88;4988986;28;20176;-60
2022/09/19 05:25:11;;;;;;;5.28;1.70;;;;;;;22.70;41.65;94862.75;4981661;28;20862;-60
2022/09/19 05:27:38;;;;;;;5.15;1.90;;;;;;;23.06;47.59;94917.41;4982338;28;20503;-60
2022/09/19 05:30:04;;;;;;;5.63;1.58;;;;;;;22.66;44.76;94845.94;4997243;28;20052;-60
2022/09/19 05:32:29;;;;;;;7.95;1.85;;;;;;;22.92;42.78;94860.56;4977247;28;20031;-60
2022/09/19 05:35:00;;;;;;;7.90;1.55;;;;;;;23.51;42.40;94929.31;4979711;28;20089;-60
2022/09/19 05:37:26;;;;;;;8.05;1.75;;;;;;;23.02;43.43;94867.94;4979958;28;20157;-60
2022/09/19 05:39:52;;;;;;;4.35;1.50;;;;;;;23.19;42.97;94871.22;4980433;28;20030;-60
2022/09/19 05:42:18;;;;;;;6.07;1.98;;;;;;;23.60;42.14;94893.53;4963786;28;20045;-60
2022/09/19 05:44:43;;;;;;;7.30;1.83;;;;;;;23.60;42.36;94888.09;4981320;28;20472;-60
2022/09/19 05:47:09;;;;;;;7.32;2.22;;;;;;;23.48;41.68;94854.03;4995907;28;20065;-60
2022/09/19 05:49:35;;;;;;;6.47;2.00;;;;;;;23.97;41.89;94906.00;5002467;28;20565;-60
2022/09/19 05:53:51;;;;;;;8.10;2.00;;;;;;;24.12;42.34;94933.56;5002029;28;20025;-59
2022/09/19 05:54:46;;;;;;;7.47;1.77;;;;;;;24.20;41.38;94926.28;4984677;28;20150;-60
2022/09/19 05:57:12;;;;;;;5.18;1.70;;;;;;;24.26;41.86;94926.19;4981372;28;20022;-61
2022/09/19 05:59:38;;;;;;;9.65;2.15;;;;;;;24.26;41.83;94916.03;4980742;28;20042;-60
2022/09/19 06:02:05;;;;;;;4.80;2.00;;;;;;;24.20;41.40;94869.00;4981449;28;20042;-60
2022/09/19 06:04:31;;;;;;;6.05;2.03;;;;;;;24.60;40.84;94917.06;4979061;28;20049;-60
2022/09/19 06:06:56;;;;;;;7.13;2.10;;;;;;;24.35;40.13;94880.22;4981219;28;20026;-60
2022/09/19 06:09:21;;;;;;;6.70;2.13;;;;;;;24.81;40.01;94920.69;4981967;28;20088;-61
2022/09/19 06:11:47;;;;;;;7.30;2.13;;;;;;;24.53;39.81;94869.25;4975913;28;20479;-61
2022/09/19 06:14:15;;;;;;;5.03;2.00;;;;;;;24.40;39.25;94819.34;4979425;28;20889;-61
2022/09/19 06:16:41;;;;;;;7.40;1.98;;;;;;;25.11;39.36;94928.19;4979986;28;20038;-60
2022/09/19 06:19:08;;;;;;;7.35;2.60;;;;;;;23.70;38.37;94709.31;4980823;28;20038;-60
2022/09/19 06:21:33;;;;;;;6.13;2.28;;;;;;;24.80;38.73;94880.97;4979143;28;20027;-60
2022/09/19 06:23:59;;;;;;;4.30;2.20;;;;;;;24.82;38.33;94856.63;4980020;28;20038;-61
2022/09/19 06:26:26;;;;;;;5.45;2.00;;;;;;;25.40;38.08;94932.63;4963031;28;20034;-60
2022/09/19 06:28:51;;;;;;;5.22;2.13;;;;;;;25.31;37.95;94891.31;4980272;28;20141;-60
2022/09/19 06:31:18;;;;;;;4.90;2.20;;;;;;;25.31;37.81;94892.03;4979882;28;20519;-60
2022/09/19 06:33:43;;;;;;;5.88;2.50;;;;;;;25.26;36.78;94933.13;4971144;28;20030;-60
2022/09/19 06:36:09;;;;;;;4.82;2.53;;;;;;;23.81;37.22;94854.41;4972849;28;20038;-60
2022/09/19 06:38:35;;;;;;;6.22;2.30;;;;;;;23.92;38.24;94936.81;4980607;28;20435;-60
2022/09/19 06:41:00;;;;;;;6.28;2.20;;;;;;;23.21;39.25;94868.69;4978548;28;20107;-60
2022/09/19 06:43:26;;;;;;;4.72;2.88;;;;;;;23.69;38.74;94934.13;4991016;28;20045;-60
2022/09/19 06:45:52;;;;;;;6.05;2.33;;;;;;;23.29;39.12;94885.97;4981322;28;20022;-60
2022/09/19 06:48:18;;;;;;;6.20;2.35;;;;;;;23.29;39.54;94932.31;4981821;28;20483;-60
2022/09/19 06:50:47;;;;;;;5.28;2.10;;;;;;;22.87;38.55;94874.22;4970165;28;20049;-62
2022/09/19 06:53:13;;;;;;;5.10;2.33;;;;;;;22.76;38.74;94866.16;4980898;28;20515;-59
2022/09/19 06:55:38;;;;;;;6.03;2.58;;;;;;;23.00;38.92;94914.00;4980735;28;20121;-60
2022/09/19 06:58:05;;;;;;;3.90;2.40;;;;;;;22.80;38.96;94899.31;4980369;28;20022;-60
2022/09/19 07:00:36;;;;;;;4.65;2.00;;;;;;;23.04;38.46;94930.78;4982093;28;20077;-61
2022/09/19 07:03:09;;;;;;;3.58;2.20;;;;;;;22.78;38.89;94918.13;4981257;28;20065;-60
2022/09/19 07:05:37;;;;;;;5.00;2.10;;;;;;;22.90;38.65;94931.16;4981427;28;20046;-60
2022/09/19 07:08:02;;;;;;;6.18;2.60;;;;;;;22.56;38.33;94859.16;4990470;28;20751;-60
2022/09/19 07:10:28;;;;;;;7.80;2.50;;;;;;;23.00;38.16;94913.25;4982413;28;20042;-60
2022/09/19 07:12:55;;;;;;;3.38;1.85;;;;;;;22.14;38.28;94823.59;4993876;28;20046;-59
2022/09/19 07:15:21;;;;;;;4.55;2.17;;;;;;;22.37;38.87;94868.47;4981483;28;20050;-60
2022/09/19 07:17:46;;;;;;;4.57;2.20;;;;;;;22.50;38.68;94865.91;4968837;28;20129;-59
2022/09/19 07:20:12;;;;;;;4.03;1.92;;;;;;;22.78;38.31;94907.22;4984768;28;20031;-59
2022/09/19 07:22:37;;;;;;;4.13;1.95;;;;;;;22.24;38.26;94854.72;4984091;28;20049;-60
2022/09/19 07:25:03;;;;;;;4.03;2.50;;;;;;;22.39;38.14;94879.59;4994031;28;20025;-61
2022/09/19 07:27:29;;;;;;;5.32;2.70;;;;;;;22.77;37.94;94916.66;4981872;28;20419;-62
2022/09/19 07:29:54;;;;;;;5.47;2.97;;;;;;;22.43;38.20;94885.47;4982105;28;20073;-59
2022/09/19 07:32:20;;;;;;;5.75;2.30;;;;;;;22.64;37.98;94909.06;4994389;28;20057;-60
2022/09/19 07:34:45;;;;;;;5.28;2.60;;;;;;;22.58;38.22;94913.06;4996815;28;20042;-59
2022/09/19 07:37:11;;;;;;;4.53;2.15;;;;;;;22.34;38.26;94874.91;4980211;28;20046;-60
2022/09/19 07:39:37;;;;;;;3.92;2.05;;;;;;;22.03;37.89;94820.97;4981488;28;20486;-60
2022/09/19 07:42:02;;;;;;;4.78;2.22;;;;;;;22.61;38.34;94910.06;4979927;28;20693;-59
2022/09/19 07:44:28;;;;;;;3.65;2.03;;;;;;;22.59;39.10;94895.50;4985396;28;20045;-60
2022/09/19 07:49:37;;;;;;;5.18;1.85;;;;;;;22.73;37.79;94894.41;5002455;28;20064;-60
2022/09/19 07:52:03;;;;;;;4.30;2.30;;;;;;;22.41;38.97;94847.16;4997024;28;20018;-59
2022/09/19 07:54:28;;;;;;;2.42;1.60;;;;;;;22.27;38.67;94831.19;4987584;28;20029;-59
2022/09/19 07:56:54;;;;;;;3.60;1.75;;;;;;;22.58;38.97;94885.88;4989141;28;20060;-59
2022/09/19 07:59:19;;;;;;;2.90;1.60;;;;;;;22.70;39.11;94892.69;4990824;28;20041;-59
2022/09/19 08:01:45;;;;;;;3.08;2.10;;;;;;;22.26;38.76;94819.59;4991930;28;20553;-59
2022/09/19 08:04:10;;;;;;;3.88;1.98;;;;;;;22.55;38.49;94879.44;4996327;28;20401;-60
2022/09/19 08:06:36;;;;;;;4.03;1.85;;;;;;;22.68;39.71;94876.13;4982840;28;20692;-59
2022/09/19 08:09:02;;;;;;;4.15;1.60;;;;;;;22.70;39.54;94882.53;4981985;28;20482;-59
2022/09/19 08:11:28;;;;;;;4.57;1.92;;;;;;;22.59;39.08;94868.28;4987042;28;20029;-59
2022/09/19 08:13:53;;;;;;;3.08;2.03;;;;;;;22.37;38.73;94814.03;4984154;28;20046;-59
2022/09/19 08:16:19;;;;;;;3.63;1.73;;;;;;;22.76;38.88;94866.91;4981743;28;20072;-60
2022/09/19 08:18:44;;;;;;;2.83;1.58;;;;;;;22.13;38.99;94783.31;4970553;28;20065;-59
2022/09/19 08:21:10;;;;;;;2.83;1.58;;;;;;;22.80;39.88;94861.19;4989087;28;20045;-59
2022/09/19 08:23:36;;;;;;;3.85;1.80;;;;;;;22.85;39.79;94852.22;4982942;28;20118;-59
2022/09/19 08:26:04;;;;;;;4.05;2.17;;;;;;;22.69;39.70;94842.97;4973748;28;20518;-59
2022/09/19 08:28:30;;;;;;;2.90;1.48;;;;;;;22.00;38.81;94745.84;4982880;28;20558;-59
2022/09/19 08:31:00;;;;;;;2.72;1.48;;;;;;;22.74;39.55;94855.06;4983021;28;20034;-59
2022/09/19 08:33:25;;;;;;;4.15;1.85;;;;;;;22.98;40.13;94872.91;4966235;28;20038;-60
2022/09/19 08:35:52;;;;;;;4.20;1.85;;;;;;;22.06;38.76;94741.09;4981911;28;20065;-60
2022/09/19 08:38:17;;;;;;;3.20;1.67;;;;;;;22.61;39.21;94849.47;4975847;28;20577;-59
2022/09/19 08:40:51;;;;;;;3.85;1.60;;;;;;;22.91;38.34;94867.25;4962639;28;20046;-59
2022/09/19 08:43:16;;;;;;;2.70;1.58;;;;;;;22.96;39.91;94863.78;4982755;28;20054;-59
2022/09/19 08:45:51;;;;;;;3.55;1.27;;;;;;;22.99;39.82;94858.06;4983460;28;20468;-58
2022/09/19 08:48:25;;;;;;;3.28;1.45;;;;;;;22.72;39.75;94805.81;4962192;28;20439;-59
2022/09/19 08:50:57;;;;;;;3.38;1.70;;;;;;;22.68;38.43;94808.81;4947571;28;20303;-60
2022/09/19 08:53:27;;;;;;;3.15;1.50;;;;;;;22.98;39.26;94851.13;4963978;28;20034;-59
2022/09/19 08:55:53;;;;;;;3.97;1.80;;;;;;;22.74;39.26;94811.50;4981551;28;20030;-60
2022/09/19 08:58:19;;;;;;;2.28;1.50;;;;;;;22.38;39.25;94739.34;4947383;28;20058;-60
2022/09/19 09:00:45;;;;;;;3.22;1.52;;;;;;;23.11;38.26;94859.41;4980452;28;20177;-61
2022/09/19 09:03:24;;;;;;;4.80;1.55;;;;;;;22.69;38.94;94782.34;4981250;28;20094;-60
2022/09/19 09:06:34;;;;;;;3.70;1.95;;;;;;;23.00;37.98;94850.59;4967890;28;20038;-60
2022/09/19 09:09:02;;;;;;;;;;;;;;;23.25;38.29;94852.09;4963343;28;20046;-60
2022/09/19 09:11:38;;;;;;;4.35;1.90;;;;;;;23.29;38.46;94847.84;5001465;28;20362;-60
2022/09/19 09:14:51;;;;;;;4.97;1.65;;;;;;;23.11;37.82;94766.81;4969069;28;20058;-60
2022/09/19 09:17:49;;;;;;;5.07;1.90;;;;;;;23.34;38.28;94789.81;4957716;28;20073;-60
2022/09/19 09:20:39;;;;;;;6.00;1.75;;;;;;;23.76;38.13;94821.75;4992828;28;20046;-60
2022/09/19 09:23:16;;;;;;;4.68;2.00;;;;;;;23.77;38.31;94793.25;4971118;28;20119;-60
2022/09/19 09:25:47;;;;;;;6.05;2.40;;;;;;;24.13;37.70;94819.75;4985701;28;20054;-60
2022/09/19 09:28:38;;;;;;;3.88;1.88;;;;;;;24.20;37.78;94819.88;4987875;28;20054;-60
2022/09/19 09:31:29;;;;;;;4.03;1.58;;;;;;;23.95;37.68;94761.22;4981668;28;20038;-60
2022/09/19 09:34:02;;;;;;;5.97;2.20;;;;;;;24.36;37.54;94805.25;4963345;28;20038;-60
2022/09/19 09:36:31;;;;;;;4.82;1.90;;;;;;;24.26;36.69;94790.50;4973126;28;20034;-61
2022/09/19 09:39:16;;;;;;;4.60;1.77;;;;;;;23.96;36.97;94697.25;4969251;28;20046;-60
2022/09/19 09:41:47;;;;;;;4.20;1.90;;;;;;;24.20;35.76;94726.34;4955256;28;20069;-60
2022/09/19 09:44:16;;;;;;;5.00;2.10;;;;;;;24.79;36.14;94792.13;4970558;28;20045;-62
2022/09/19 09:46:53;;;;;;;5.20;1.90;;;;;;;25.05;36.12;94782.72;4989241;28;20042;-64
2022/09/19 09:49:22;;;;;;;4.18;2.13;;;;;;;24.75;36.43;94745.25;4973246;28;20379;-62
2022/09/19 09:51:51;;;;;;;4.80;1.90;;;;;;;24.67;35.74;94687.81;4980734;28;20557;-63
2022/09/19 09:57:59;;;;;;;3.83;1.70;;;;;;;25.53;35.07;94782.22;4978536;28;20109;-60
2022/09/19 10:03:35;;;;;;;4.93;1.75;;;;;;;25.59;34.70;94777.38;4991156;28;20069;-62
2022/09/19 10:06:13;;;;;;;5.15;2.53;;;;;;;25.33;34.74;94763.75;4977478;28;20046;-62
2022/09/19 10:08:56;;;;;;;5.45;1.85;;;;;;;25.79;34.10;94763.06;4980686;28;20064;-63
2022/09/19 10:11:44;;;;;;;4.28;1.88;;;;;;;25.55;33.80;94768.78;4950656;28;20038;-61
2022/09/19 10:14:20;;;;;;;6.13;1.80;;;;;;;25.59;33.93;94752.78;4981192;28;20046;-61
2022/09/19 10:16:52;;;;;;;5.40;1.70;;;;;;;25.93;33.84;94765.97;4946570;28;20038;-62
2022/09/19 10:19:27;;;;;;;3.53;1.60;;;;;;;25.97;34.13;94766.34;4980704;28;20119;-61
2022/09/19 10:21:54;;;;;;;3.70;1.90;;;;;;;25.53;33.49;94749.41;4980621;28;20082;-59
2022/09/19 10:24:41;;;;;;;2.40;1.50;;;;;;;26.03;33.87;94758.75;4981368;28;21047;-60
2022/09/19 10:27:15;;;;;;;3.40;1.40;;;;;;;25.61;33.76;94662.75;4981858;28;20723;-61
2022/09/19 10:30:01;;;;;;;3.53;1.70;;;;;;;26.11;33.93;94753.34;4968197;28;20069;-62
2022/09/19 10:32:39;;;;;;;4.15;1.70;;;;;;;26.04;33.80;94715.72;4989906;28;20381;-61
2022/09/19 10:35:28;;;;;;;3.67;1.80;;;;;;;25.88;33.44;94695.66;4988270;28;20033;-62
2022/09/19 10:38:00;;;;;;;3.85;1.77;;;;;;;26.19;33.97;94729.50;4985123;28;20045;-60
2022/09/19 10:40:27;;;;;;;4.93;1.98;;;;;;;26.23;33.39;94711.47;4957587;28;20042;-61
2022/09/19 10:42:54;;;;;;;4.30;1.60;;;;;;;26.53;33.34;94733.66;4965817;28;20026;-61
2022/09/19 10:45:27;;;;;;;3.45;1.70;;;;;;;26.19;33.90;94711.09;4952043;28;20020;-60
2022/09/19 10:47:56;;;;;;;3.22;1.60;;;;;;;26.01;33.87;94673.72;4969572;28;20065;-60
2022/09/19 10:50:21;;;;;;;5.10;1.88;;;;;;;25.65;34.02;94641.28;4993434;28;20046;-59
2022/09/19 10:52:47;;;;;;;2.75;1.42;;;;;;;26.09;34.30;94701.88;4974060;28;20073;-59
2022/09/19 10:55:20;;;;;;;3.28;1.88;;;;;;;26.08;34.24;94694.94;4990225;28;20041;-61
2022/09/19 10:57:56;;;;;;;4.03;1.67;;;;;;;25.52;34.66;94616.72;4963246;28;20026;-61
2022/09/19 11:00:24;;;;;;;2.95;1.45;;;;;;;26.07;34.79;94698.97;4949049;28;20108;-60
2022/09/19 11:03:01;;;;;;;3.33;1.30;;;;;;;25.78;35.05;94687.72;4956958;28;20069;-60
2022/09/19 11:05:29;;;;;;;4.57;1.42;;;;;;;25.58;34.76;94647.41;4987454;28;20057;-60
2022/09/19 11:07:55;;;;;;;2.50;1.25;;;;;;;25.82;34.77;94672.47;4960763;28;20050;-60
2022/09/19 11:10:40;;;;;;;4.97;1.48;;;;;;;25.93;34.67;94677.66;4987172;28;20042;-61
2022/09/19 11:13:16;;;;;;;3.17;1.30;;;;;;;25.11;34.74;94572.94;4963484;28;20143;-60
2022/09/19 11:16:26;;;;;;;4.53;1.55;;;;;;;25.64;35.02;94648.00;4967621;28;20046;-61
2022/09/19 11:19:46;;;;;;;3.35;1.20;;;;;;;25.39;35.30;94652.28;4968452;28;22009;-61
2022/09/19 11:22:15;;;;;;;5.47;1.48;;;;;;;25.56;35.39;94671.78;4894961;28;20088;-60
2022/09/19 11:24:53;;;;;;;2.72;1.50;;;;;;;25.25;35.47;94653.59;4980316;28;20104;-60
2022/09/19 11:27:44;;;;;;;4.63;1.45;;;;;;;25.59;34.94;94654.31;4981215;28;20138;-60
2022/09/19 11:30:18;;;;;;;3.17;1.30;;;;;;;25.58;34.99;94652.88;4982151;28;20042;-60
2022/09/19 11:33:16;;;;;;;3.20;1.35;;;;;;;25.47;35.25;94653.09;4970922;28;20471;-60
2022/09/19 11:35:48;;;;;;;2.65;1.40;;;;;;;25.20;35.36;94651.75;4977846;28;20734;-60
2022/09/19 11:38:38;;;;;;;2.78;1.20;;;;;;;25.27;35.20;94656.53;4964719;28;20070;-61
2022/09/19 11:41:25;;;;;;;3.20;1.40;;;;;;;25.33;35.36;94649.69;4982100;28;20543;-60
2022/09/19 11:44:12;;;;;;;4.28;1.67;;;;;;;25.23;35.02;94653.41;4981371;28;20120;-60
2022/09/19 11:46:54;;;;;;;4.05;1.60;;;;;;;25.11;35.30;94643.97;4981670;28;20034;-60
2022/09/19 11:49:46;;;;;;;2.83;1.27;;;;;;;24.40;36.03;94573.69;4980119;28;20557;-60
2022/09/19 11:52:30;;;;;;;3.47;1.35;;;;;;;24.69;35.52;94629.94;4949253;28;20046;-61
2022/09/19 11:55:10;;;;;;;3.72;1.23;;;;;;;24.75;35.79;94638.75;4980203;28;20256;-60
2022/09/19 11:58:03;;;;;;;3.85;1.33;;;;;;;24.80;35.63;94635.16;4981316;28;20045;-60
2022/09/19 12:00:29;;;;;;;2.70;1.38;;;;;;;24.16;35.42;94535.69;4980109;28;20053;-60
2022/09/19 12:03:16;;;;;;;3.97;1.40;;;;;;;24.86;35.59;94634.53;4979872;28;20038;-59